METAR Data
IDs: Format: Raw Decoded Include TAF

Data at: 2129 UTC 08 Aug 2020

KDKX 082115Z AUTO 00000KT 10SM BKN060 BKN070 32/20 A3012 RMK A01
KDKX 082055Z AUTO 00000KT 10SM SCT060 SCT070 32/19 A3012 RMK A01
KDKX 082035Z AUTO 26007KT 10SM SCT060 32/19 A3012 RMK A01
KDKX 082015Z AUTO VRB03KT 10SM FEW060 32/18 A3013 RMK A01
KDKX 081955Z AUTO 00000KT 10SM CLR 32/17 A3014 RMK A01
KDKX 081935Z AUTO 26005KT 10SM CLR 32/18 A3014 RMK A01
KDKX 081915Z AUTO VRB05G10KT 10SM CLR 32/18 A3015 RMK A01
KDKX 081855Z AUTO 00000KT 10SM FEW050 32/18 A3015 RMK A01
KDKX 081835Z AUTO 00000KT 10SM SCT050 31/20 A3016 RMK A01
KDKX 081815Z AUTO VRB03KT 10SM SCT050 SCT055 31/20 A3016 RMK A01
KDKX 081755Z AUTO 24004KT 10SM CLR 31/19 A3017 RMK A01
KDKX 081735Z AUTO 27003KT 10SM CLR 30/20 A3016 RMK A01
KDKX 081715Z AUTO VRB03KT 10SM CLR 30/20 A3016 RMK A01
KDKX 081655Z AUTO 00000KT 10SM CLR 30/20 A3017 RMK A01
KDKX 081635Z AUTO 27005KT 10SM CLR 29/19 A3017 RMK A01
KDKX 081615Z AUTO 00000KT 10SM CLR 30/21 A3017 RMK A01
KDKX 081555Z AUTO 00000KT 10SM CLR 29/21 A3018 RMK A01
KDKX 081535Z AUTO 00000KT 10SM CLR 28/21 A3018 RMK A01
KDKX 081515Z AUTO 00000KT 10SM CLR 28/21 A3018 RMK A01
KDKX 081455Z AUTO 00000KT 10SM CLR 28/21 A3018 RMK A01
KDKX 081435Z AUTO 00000KT 10SM CLR 27/21 A3018 RMK A01
KDKX 081415Z AUTO 00000KT 10SM CLR 25/21 A3018 RMK A01
KDKX 081355Z AUTO 00000KT 10SM CLR 25/21 A3018 RMK A01
KDKX 081335Z AUTO 00000KT 10SM CLR 25/20 A3019 RMK A01
KDKX 081315Z AUTO 00000KT 10SM CLR 24/21 A3019 RMK A01
KDKX 081255Z AUTO 00000KT 10SM CLR 22/21 A3019 RMK A01
KDKX 081235Z AUTO 00000KT 9SM CLR 22/20 A3019 RMK A01
KDKX 081215Z AUTO 00000KT 9SM CLR 21/20 A3018 RMK A01
KDKX 081155Z AUTO 00000KT 6SM BR CLR 20/20 A3017 RMK A01
KDKX 081135Z AUTO 00000KT 20/19 A3017 RMK A01
KDKX 081115Z AUTO 00000KT 3SM BR CLR 19/19 A3016 RMK A01
KDKX 081055Z AUTO 00000KT 3SM BR CLR 19/19 A3016 RMK A01
KDKX 081035Z AUTO 00000KT 4SM BR CLR 19/19 A3016 RMK A01
KDKX 081015Z AUTO 00000KT 2 1/2SM BR CLR 19/19 A3015 RMK A01
KDKX 080955Z AUTO 00000KT 3SM BR CLR 19/19 A3014 RMK A01
KDKX 080935Z AUTO 00000KT 4SM BR CLR 19/19 A3014 RMK A01
KDKX 080915Z AUTO 00000KT 2SM BR CLR 19/19 A3013 RMK A01
KDKX 080855Z AUTO 00000KT 3SM BR CLR 20/20 A3013 RMK A01
KDKX 080835Z AUTO 00000KT 4SM BR CLR 20/20 A3013 RMK A01
KDKX 080815Z AUTO 00000KT 4SM BR CLR 20/20 A3013 RMK A01
KDKX 080755Z AUTO 00000KT 4SM BR CLR 20/20 A3013 RMK A01
KDKX 080735Z AUTO 00000KT 7SM CLR 20/20 A3013 RMK A01
KDKX 080715Z AUTO 00000KT 4SM BR CLR 20/20 A3013 RMK A01
KDKX 080655Z AUTO 00000KT 6SM BR CLR 20/20 A3013 RMK A01
KDKX 080635Z AUTO 00000KT 9SM CLR 20/20 A3013 RMK A01
KDKX 080615Z AUTO 00000KT 6SM BR CLR 21/20 A3013 RMK A01
KDKX 080550Z AUTO 00000KT 7SM CLR 21/20 A3013 RMK A01
KDKX 080535Z AUTO 00000KT 9SM CLR 21/21 A3014 RMK A01
KDKX 080515Z AUTO 00000KT 7SM CLR 21/21 A3014 RMK A01
KDKX 080450Z AUTO 00000KT 8SM CLR 21/21 A3014 RMK A01
KDKX 080435Z AUTO 00000KT 9SM FEW044 21/21 A3013 RMK A01
KDKX 080415Z AUTO 00000KT 10SM FEW044 21/21 A3013 RMK A01
KDKX 080355Z AUTO 00000KT 10SM CLR 22/21 A3014 RMK A01
KDKX 080335Z AUTO 00000KT 10SM CLR 22/21 A3013 RMK A01
KDKX 080315Z AUTO 00000KT 10SM CLR 22/21 A3013 RMK A01
KDKX 080255Z AUTO 00000KT 10SM FEW046 22/21 A3013 RMK A01
KDKX 080235Z AUTO 00000KT 10SM SCT046 23/22 A3012 RMK A01
KDKX 080215Z AUTO 00000KT 10SM FEW050 23/22 A3012 RMK A01
KDKX 080155Z AUTO 00000KT 10SM BKN050 23/22 A3011 RMK A01
KDKX 080135Z AUTO 00000KT 10SM BKN055 OVC070 24/22 A3011 RMK A01
KDKX 080115Z AUTO 00000KT 10SM BKN055 BKN070 24/23 A3010 RMK A01
KDKX 080055Z AUTO 00000KT 10SM BKN060 BKN070 25/22 A3010 RMK A01
KDKX 080035Z AUTO 00000KT 10SM FEW060 SCT070 25/23 A3009 RMK A01
KDKX 080015Z AUTO 00000KT 10SM CLR 25/22 A3009 RMK A01
KDKX 072355Z AUTO 00000KT 10SM FEW050 FEW065 26/22 A3008 RMK A01
KDKX 072335Z AUTO 00000KT 10SM FEW050 FEW065 27/22 A3008 RMK A01
KDKX 072315Z AUTO 00000KT 10SM CLR 29/21 A3007 RMK A01
KDKX 072255Z AUTO 00000KT 10SM CLR 29/21 A3007 RMK A01
KDKX 072235Z AUTO 00000KT 10SM FEW046 SCT050 30/21 A3007 RMK A01
KDKX 072215Z AUTO 00000KT 10SM SCT049 31/21 A3006 RMK A01
KDKX 072155Z AUTO 00000KT 10SM SCT050 31/20 A3006 RMK A01
KDKX 072135Z AUTO 00000KT 10SM CLR 30/21 A3006 RMK A01
KDKX 072115Z AUTO VRB03KT 10SM CLR 31/21 A3006 RMK A01
KDKX 072055Z AUTO 00000KT 10SM FEW045 31/21 A3006 RMK A01
KDKX 072035Z AUTO VRB04KT 10SM BKN047 31/20 A3006 RMK A01
KDKX 072015Z AUTO 00000KT 10SM SCT047 31/21 A3007 RMK A01
KDKX 071955Z AUTO 00000KT 10SM CLR 32/21 A3007 RMK A01
KDKX 071935Z AUTO 00000KT 10SM FEW043 31/21 A3008 RMK A01
KDKX 071915Z AUTO 00000KT 10SM FEW042 31/21 A3009 RMK A01
KDKX 071855Z AUTO 00000KT 10SM CLR 31/21 A3009 RMK A01
KDKX 071835Z AUTO 00000KT 10SM CLR 31/22 A3010 RMK A01
KDKX 071815Z AUTO 00000KT 10SM SCT032 30/23 A3010 RMK A01
KDKX 071755Z AUTO 00000KT 10SM FEW029 30/22 A3010 RMK A01
KDKX 071735Z AUTO 00000KT 10SM FEW029 FEW048 30/23 A3010 RMK A01
KDKX 071715Z AUTO 00000KT 10SM FEW025 29/22 A3011 RMK A01
KDKX 071655Z AUTO 00000KT 10SM SCT025 SCT036 SCT047 29/22 A3012 RMK A01
KDKX 071635Z AUTO 00000KT 10SM CLR 28/22 A3012 RMK A01
KDKX 071615Z AUTO 00000KT 10SM BKN026 27/22 A3012 RMK A01
KDKX 071555Z AUTO 00000KT 10SM BKN023 27/22 A3012 RMK A01
KDKX 071535Z AUTO 00000KT 10SM FEW021 27/22 A3012 RMK A01
KDKX 071515Z AUTO 00000KT 10SM FEW050 26/22 A3012 RMK A01
KDKX 071455Z AUTO 00000KT 10SM FEW012 BKN050 26/22 A3012 RMK A01
KDKX 071435Z AUTO 00000KT 10SM BKN013 BKN050 25/22 A3012 RMK A01
KDKX 071415Z AUTO 14004KT 10SM BKN011 BKN050 24/22 A3012 RMK A01
KDKX 071350Z AUTO 00000KT 10SM FEW009 FEW050 23/21 A3012 RMK A01
KDKX 071335Z AUTO 00000KT 10SM FEW050 23/21 A3011 RMK A01
KDKX 071315Z AUTO 00000KT 10SM CLR 22/21 A3011 RMK A01
KDKX 071255Z AUTO 00000KT 9SM FEW005 22/21 A3011 RMK A01
KDKX 071235Z AUTO 00000KT 10SM BKN005 21/20 A3010 RMK A01
KDKX 071215Z AUTO 00000KT 9SM FEW004 21/20 A3010 RMK A01
KDKX 071155Z AUTO 00000KT 9SM CLR 21/20 A3009 RMK A01
KDKX 071135Z AUTO 00000KT 8SM CLR 20/20 A3009 RMK A01
KDKX 071115Z AUTO 00000KT 4SM BR SCT002 20/20 A3008 RMK A01
KDKX 071055Z AUTO 00000KT 6SM BR FEW003 20/20 A3008 RMK A01
KDKX 071035Z AUTO 00000KT 7SM CLR 20/20 A3007 RMK A01
KDKX 071015Z AUTO 00000KT 8SM FEW003 FEW009 20/20 A3007 RMK A01
KDKX 070955Z AUTO 00000KT 5SM BR FEW003 20/20 A3006 RMK A01
KDKX 070935Z AUTO 00000KT 3SM BR CLR 20/20 A3006 RMK A01